createdAt,value
2024-04-18T00:02:01.188Z,81.26
2024-04-18T00:04:31.135Z,81.16
2024-04-18T00:06:58.093Z,81.51
2024-04-18T00:09:24.946Z,81.25
2024-04-18T00:11:51.808Z,81.10
2024-04-18T00:14:18.726Z,81.31
2024-04-18T00:16:45.527Z,81.18
2024-04-18T00:19:12.404Z,81.32
2024-04-18T00:21:41.836Z,81.38
2024-04-18T00:24:08.750Z,81.39
2024-04-18T00:26:35.615Z,81.02
2024-04-18T00:29:02.439Z,81.25
2024-04-18T00:31:29.284Z,81.15
2024-04-18T00:33:56.122Z,81.28
2024-04-18T00:36:22.967Z,81.27
2024-04-18T00:38:52.432Z,81.11
2024-04-18T00:41:19.633Z,81.09
2024-04-18T00:43:46.489Z,81.27
2024-04-18T00:46:13.357Z,81.16
2024-04-18T00:48:40.434Z,81.17
2024-04-18T00:51:07.881Z,81.31
2024-04-18T00:53:35.289Z,81.20
2024-04-18T00:56:05.389Z,81.09
2024-04-18T00:58:32.245Z,81.42
2024-04-18T01:01:00.150Z,81.15
2024-04-18T01:03:27.138Z,81.50
2024-04-18T01:05:54.121Z,81.63
2024-04-18T01:08:20.973Z,81.57
2024-04-18T01:10:47.807Z,81.41
2024-04-18T01:13:17.383Z,81.24
2024-04-18T01:15:44.543Z,81.68
2024-04-18T01:18:11.529Z,81.61
2024-04-18T01:20:39.064Z,81.00
2024-04-18T01:23:05.868Z,81.55
2024-04-18T01:25:32.680Z,81.18
2024-04-18T01:28:02.083Z,81.26
2024-04-18T01:30:28.908Z,81.58
2024-04-18T01:32:55.832Z,81.71
2024-04-18T01:35:22.613Z,81.46
2024-04-18T01:37:49.480Z,81.62
2024-04-18T01:40:16.666Z,81.25
2024-04-18T01:42:43.652Z,81.57
2024-04-18T01:45:13.199Z,81.76
2024-04-18T01:47:40.205Z,81.70
2024-04-18T01:50:07.411Z,81.63
2024-04-18T01:52:34.316Z,81.53
2024-04-18T01:55:01.156Z,81.66
2024-04-18T01:57:27.978Z,81.89
2024-04-18T01:59:54.844Z,81.49
2024-04-18T02:02:25.145Z,81.37
2024-04-18T02:04:52.360Z,81.34
2024-04-18T02:07:19.301Z,81.61
2024-04-18T02:09:46.125Z,81.67
2024-04-18T02:12:12.962Z,81.59
2024-04-18T02:14:41.343Z,81.56
2024-04-18T02:17:08.160Z,81.51
2024-04-18T02:19:37.798Z,81.37
2024-04-18T02:22:04.878Z,81.64
2024-04-18T02:24:33.265Z,81.08
2024-04-18T02:27:00.158Z,81.47
2024-04-18T02:29:26.942Z,81.27
2024-04-18T02:31:53.762Z,81.26
2024-04-18T02:34:20.559Z,81.08
2024-04-18T02:36:50.058Z,80.94
2024-04-18T02:39:17.011Z,81.37
2024-04-18T02:41:43.860Z,81.36
2024-04-18T02:44:10.627Z,81.33
2024-04-18T02:46:37.651Z,81.30
2024-04-18T02:49:04.594Z,81.50
2024-04-18T02:51:32.001Z,80.97
2024-04-18T02:54:01.622Z,81.13
2024-04-18T02:56:28.494Z,81.50
2024-04-18T02:58:55.465Z,81.43
2024-04-18T03:01:22.380Z,81.09
2024-04-18T03:03:49.314Z,81.30
2024-04-18T03:06:16.212Z,81.47
2024-04-18T03:08:44.148Z,81.19
2024-04-18T03:11:13.659Z,80.99
2024-04-18T03:13:40.533Z,81.27
2024-04-18T03:16:07.822Z,81.27
2024-04-18T03:18:34.709Z,81.28
2024-04-18T03:21:01.585Z,81.65
2024-04-18T03:23:28.464Z,81.18
2024-04-18T03:25:55.302Z,81.37
2024-04-18T03:28:24.733Z,81.43
2024-04-18T03:30:51.644Z,81.11
2024-04-18T03:33:18.565Z,81.13
2024-04-18T03:35:45.391Z,80.91
2024-04-18T03:38:12.272Z,80.90
2024-04-18T03:40:39.571Z,81.35
2024-04-18T03:43:06.644Z,80.91
2024-04-18T03:45:36.224Z,81.36
2024-04-18T03:48:03.257Z,81.10
2024-04-18T03:50:30.196Z,81.58
2024-04-18T03:52:56.967Z,81.45
2024-04-18T03:55:23.787Z,81.27
2024-04-18T03:57:50.725Z,80.82
2024-04-18T04:00:17.675Z,81.35
2024-04-18T04:02:47.087Z,81.33
2024-04-18T04:05:14.054Z,80.91
2024-04-18T04:07:40.841Z,81.19
2024-04-18T04:10:08.007Z,81.05
2024-04-18T04:12:37.934Z,81.15
2024-04-18T04:15:05.495Z,81.14
2024-04-18T04:17:33.255Z,81.29
2024-04-18T04:20:02.759Z,80.94
2024-04-18T04:22:32.278Z,80.74
2024-04-18T04:25:00.296Z,81.06
2024-04-18T04:27:27.167Z,81.02
2024-04-18T04:29:54.041Z,80.83
2024-04-18T04:32:24.806Z,81.00
2024-04-18T04:34:52.440Z,81.42
2024-04-18T04:37:21.951Z,81.30
2024-04-18T04:39:48.943Z,81.17
2024-04-18T04:42:15.938Z,81.30
2024-04-18T04:44:42.878Z,81.06
2024-04-18T04:47:09.661Z,81.41
2024-04-18T04:49:36.710Z,81.54
2024-04-18T04:52:04.695Z,81.06
2024-04-18T04:54:34.221Z,81.05
2024-04-18T04:57:01.639Z,81.37
2024-04-18T04:59:28.513Z,80.99
2024-04-18T05:01:55.300Z,81.53
2024-04-18T05:04:22.347Z,81.22
2024-04-18T05:06:49.283Z,81.31
2024-04-18T05:09:17.889Z,81.53
2024-04-18T05:11:47.854Z,81.24
2024-04-18T05:14:15.025Z,81.28
2024-04-18T05:16:41.900Z,81.61
2024-04-18T05:19:08.749Z,81.11
2024-04-18T05:21:35.583Z,81.12
2024-04-18T05:24:02.512Z,81.40
2024-04-18T05:26:35.943Z,81.25
2024-04-18T05:29:23.806Z,81.14
2024-04-18T05:31:51.258Z,81.30
2024-04-18T05:34:18.105Z,81.47
2024-04-18T05:36:45.158Z,81.44
2024-04-18T05:39:12.018Z,81.15
2024-04-18T05:41:38.935Z,81.14
2024-04-18T05:44:08.446Z,80.94
2024-04-18T05:46:35.246Z,80.96
2024-04-18T05:49:02.181Z,81.11
2024-04-18T05:51:29.013Z,81.27
2024-04-18T05:53:55.884Z,81.28
2024-04-18T05:56:22.705Z,81.00
2024-04-18T05:58:49.521Z,81.22
2024-04-18T06:01:19.276Z,81.20
2024-04-18T06:03:46.185Z,80.88
2024-04-18T06:06:13.005Z,81.06
2024-04-18T06:08:39.825Z,81.08
2024-04-18T06:11:06.647Z,81.12
2024-04-18T06:13:36.341Z,81.00
2024-04-18T06:16:03.541Z,81.27
2024-04-18T06:18:33.122Z,81.07
2024-04-18T06:21:01.687Z,80.91
2024-04-18T06:23:28.531Z,81.00
2024-04-18T06:25:55.339Z,81.39
2024-04-18T06:28:22.296Z,81.36
2024-04-18T06:30:49.233Z,81.39
2024-04-18T06:33:16.176Z,81.19
2024-04-18T06:35:45.712Z,81.69
2024-04-18T06:38:12.528Z,81.71
2024-04-18T06:40:39.454Z,81.50
2024-04-18T06:43:06.286Z,81.05
2024-04-18T06:45:34.197Z,80.95
2024-04-18T06:48:01.204Z,80.70
2024-04-18T06:50:28.323Z,80.74
2024-04-18T06:52:57.785Z,80.80
2024-04-18T06:55:24.583Z,81.14
2024-04-18T06:57:51.652Z,80.97
2024-04-18T07:00:18.851Z,80.42
2024-04-18T07:02:45.976Z,80.43
2024-04-18T07:05:13.017Z,80.49
2024-04-18T07:07:39.948Z,80.60
2024-04-18T07:10:10.142Z,80.44
2024-04-18T07:12:36.941Z,80.73
2024-04-18T07:15:04.258Z,80.22
2024-04-18T07:17:31.754Z,80.45
2024-04-18T07:19:58.627Z,80.48
2024-04-18T07:22:25.515Z,80.09
2024-04-18T07:24:52.369Z,80.12
2024-04-18T07:27:21.889Z,80.15
2024-04-18T07:29:49.103Z,80.13
2024-04-18T07:32:15.934Z,79.90
2024-04-18T07:34:42.943Z,79.90
2024-04-18T07:37:09.759Z,79.86
2024-04-18T07:39:36.599Z,80.21
2024-04-18T07:42:03.530Z,80.03
2024-04-18T07:44:32.972Z,79.79
2024-04-18T07:46:59.799Z,79.66
2024-04-18T07:49:26.635Z,80.09
2024-04-18T07:51:53.527Z,80.04
2024-04-18T07:54:21.596Z,79.75
2024-04-18T07:56:48.849Z,80.16
2024-04-18T07:59:17.734Z,79.85
2024-04-18T08:01:49.102Z,80.12
2024-04-18T08:04:34.821Z,79.74
2024-04-18T08:07:05.717Z,79.58
2024-04-18T08:09:36.707Z,80.06
2024-04-18T08:12:23.857Z,79.96
2024-04-18T08:14:56.044Z,79.64
2024-04-18T08:17:28.344Z,80.03
2024-04-18T08:19:55.333Z,79.71
2024-04-18T08:22:23.123Z,79.79
2024-04-18T08:24:51.146Z,79.67
2024-04-18T08:27:18.016Z,79.48
2024-04-18T08:29:44.818Z,79.73
2024-04-18T08:32:11.803Z,79.54
2024-04-18T08:34:43.717Z,79.48
2024-04-18T08:37:11.875Z,79.22
2024-04-18T08:39:38.773Z,79.36
2024-04-18T08:42:11.037Z,79.57
2024-04-18T08:44:38.138Z,79.17
2024-04-18T08:47:06.209Z,79.02
2024-04-18T08:49:38.067Z,79.22
2024-04-18T08:52:07.728Z,78.94
2024-04-18T08:54:35.315Z,79.29
2024-04-18T08:57:08.422Z,78.55
2024-04-18T08:59:35.362Z,78.24
2024-04-18T09:02:02.768Z,78.37
2024-04-18T09:04:30.718Z,78.47
2024-04-18T09:06:57.519Z,78.08
2024-04-18T09:09:27.394Z,78.36
2024-04-18T09:11:54.280Z,78.54
2024-04-18T09:14:21.458Z,78.08
2024-04-18T09:16:48.336Z,78.29
2024-04-18T09:19:16.341Z,78.05
2024-04-18T09:21:43.256Z,78.09
2024-04-18T09:24:10.141Z,78.21
2024-04-18T09:26:40.180Z,78.00
2024-04-18T09:29:06.996Z,78.02
2024-04-18T09:31:38.619Z,77.55
2024-04-18T09:34:14.571Z,77.80
2024-04-18T09:36:42.635Z,77.49
2024-04-18T09:39:12.237Z,77.11
2024-04-18T09:41:49.833Z,77.15
2024-04-18T09:44:21.593Z,77.14
2024-04-18T09:46:51.409Z,76.82
2024-04-18T09:49:19.711Z,76.95
2024-04-18T09:51:48.158Z,76.73
2024-04-18T09:54:15.918Z,76.18
2024-04-18T09:56:47.974Z,76.25
2024-04-18T09:59:17.402Z,76.27
2024-04-18T10:01:44.346Z,76.37
2024-04-18T10:04:11.465Z,76.79
2024-04-18T10:06:42.423Z,76.65
2024-04-18T10:09:10.892Z,76.45
2024-04-18T10:11:38.319Z,76.54
2024-04-18T10:14:08.753Z,76.39
2024-04-18T10:16:46.750Z,76.53
2024-04-18T10:19:13.788Z,76.77
2024-04-18T10:21:49.828Z,76.45
2024-04-18T10:24:33.473Z,77.00
2024-04-18T10:27:02.116Z,76.90
2024-04-18T10:29:31.585Z,76.64
2024-04-18T10:31:58.786Z,77.10
2024-04-18T10:34:27.955Z,76.53
2024-04-18T10:36:57.870Z,76.69
2024-04-18T10:39:29.624Z,76.49
2024-04-18T10:41:58.798Z,76.24
2024-04-18T10:44:26.498Z,76.01
2024-04-18T10:46:56.276Z,75.80
2024-04-18T10:49:23.716Z,76.39
2024-04-18T10:51:50.956Z,75.87
2024-04-18T10:54:18.776Z,76.21
2024-04-18T10:56:45.751Z,76.20
2024-04-18T10:59:12.633Z,76.15
2024-04-18T11:01:40.740Z,75.96
2024-04-18T11:04:11.248Z,75.76
2024-04-18T11:06:38.260Z,75.89
2024-04-18T11:09:05.181Z,75.97
2024-04-18T11:11:34.751Z,75.88
2024-04-18T11:14:01.860Z,75.86
2024-04-18T11:16:29.433Z,75.23
2024-04-18T11:18:56.856Z,74.87
2024-04-18T11:21:27.732Z,74.68
2024-04-18T11:23:56.622Z,74.45
2024-04-18T11:26:24.182Z,74.12
2024-04-18T11:28:52.382Z,73.83
2024-04-18T11:31:19.386Z,73.82
2024-04-18T11:33:46.365Z,73.58
2024-04-18T11:36:15.107Z,73.64
2024-04-18T11:38:44.516Z,73.54
2024-04-18T11:41:12.382Z,73.03
2024-04-18T11:43:39.254Z,72.58
2024-04-18T11:46:06.096Z,72.70
2024-04-18T11:48:33.194Z,72.41
2024-04-18T11:51:00.171Z,72.58
2024-04-18T11:53:26.968Z,72.29
2024-04-18T11:55:58.178Z,72.35
2024-04-18T11:58:25.520Z,72.20
2024-04-18T12:00:52.368Z,72.58
2024-04-18T12:03:21.195Z,72.66
2024-04-18T12:05:48.208Z,72.53
2024-04-18T12:08:15.024Z,72.48
2024-04-18T12:10:41.827Z,71.94
2024-04-18T12:13:11.271Z,71.79
2024-04-18T12:15:38.239Z,72.01
2024-04-18T12:18:05.624Z,71.20
2024-04-18T12:20:32.808Z,71.25
2024-04-18T12:22:59.649Z,71.03
2024-04-18T12:25:26.502Z,70.62
2024-04-18T12:27:53.352Z,70.62
2024-04-18T12:30:22.820Z,70.45
2024-04-18T12:32:51.034Z,70.68
2024-04-18T12:35:17.936Z,70.46
2024-04-18T12:37:44.724Z,70.30
2024-04-18T12:40:12.959Z,70.17
2024-04-18T12:42:39.826Z,70.22
2024-04-18T12:45:07.494Z,69.95
2024-04-18T12:47:37.117Z,69.15
2024-04-18T12:50:05.642Z,68.84
2024-04-18T12:52:32.532Z,69.02
2024-04-18T12:54:59.379Z,69.01
2024-04-18T12:57:26.315Z,69.47
2024-04-18T12:59:53.285Z,69.62
2024-04-18T13:02:20.196Z,69.58
2024-04-18T13:04:49.848Z,69.55
2024-04-18T13:07:16.842Z,69.65
2024-04-18T13:09:43.676Z,69.85
2024-04-18T13:12:10.572Z,69.91
2024-04-18T13:14:37.538Z,69.70
2024-04-18T13:17:04.670Z,69.82
2024-04-18T13:19:31.458Z,69.92
2024-04-18T13:22:01.065Z,69.54
2024-04-18T13:24:27.930Z,69.62
2024-04-18T13:26:54.985Z,69.45
2024-04-18T13:29:24.526Z,69.77
2024-04-18T13:31:52.463Z,69.89
2024-04-18T13:34:19.430Z,69.83
2024-04-18T13:36:46.520Z,69.43
2024-04-18T13:39:16.210Z,69.08
2024-04-18T13:41:46.742Z,69.11
2024-04-18T13:44:13.637Z,69.15
2024-04-18T13:46:40.554Z,69.20
2024-04-18T13:49:07.424Z,69.33
2024-04-18T13:51:34.376Z,69.28
2024-04-18T13:54:02.125Z,69.71
2024-04-18T13:56:31.873Z,69.54
2024-04-18T13:58:58.667Z,69.72
2024-04-18T14:01:25.556Z,69.76
2024-04-18T14:03:52.570Z,70.14
2024-04-18T14:06:19.416Z,69.83
2024-04-18T14:08:46.323Z,69.79
2024-04-18T14:11:13.348Z,69.78
2024-04-18T14:13:42.858Z,69.83
2024-04-18T14:16:28.581Z,69.58
2024-04-18T14:18:58.345Z,69.65
2024-04-18T14:21:25.325Z,69.54
2024-04-18T14:23:52.206Z,69.54
2024-04-18T14:26:19.369Z,69.33
2024-04-18T14:28:48.918Z,69.34
2024-04-18T14:31:15.687Z,69.37
2024-04-18T14:33:42.606Z,69.32
2024-04-18T14:36:09.601Z,69.40
2024-04-18T14:38:37.458Z,69.70
2024-04-18T14:41:10.063Z,69.54
2024-04-18T14:43:39.189Z,69.50
2024-04-18T14:46:08.721Z,69.70
2024-04-18T14:48:37.582Z,69.63
2024-04-18T14:51:04.965Z,69.71
2024-04-18T14:53:31.790Z,69.90
2024-04-18T14:55:59.185Z,69.83
2024-04-18T14:58:26.002Z,69.91
2024-04-18T15:00:54.814Z,70.26
2024-04-18T15:03:25.544Z,70.20
2024-04-18T15:05:54.187Z,70.39
2024-04-18T15:08:21.254Z,70.44
2024-04-18T15:10:48.152Z,70.41
2024-04-18T15:13:15.132Z,70.48
2024-04-18T15:15:42.412Z,70.33
2024-04-18T15:18:09.354Z,70.18
2024-04-18T15:20:38.938Z,70.52
2024-04-18T15:23:06.184Z,70.54
2024-04-18T15:25:33.160Z,70.52
2024-04-18T15:27:59.956Z,70.27
2024-04-18T15:30:26.813Z,70.50
2024-04-18T15:32:53.671Z,70.55
2024-04-18T15:35:20.548Z,70.42
2024-04-18T15:37:50.046Z,70.08
2024-04-18T15:40:17.983Z,70.19
2024-04-18T15:42:45.255Z,70.17
2024-04-18T15:45:12.199Z,70.22
2024-04-18T15:47:39.291Z,70.13
2024-04-18T15:50:06.688Z,70.15
2024-04-18T15:52:34.869Z,70.22
2024-04-18T15:55:12.963Z,70.07
2024-04-18T15:57:46.730Z,70.38
2024-04-18T16:00:14.103Z,69.89
2024-04-18T16:02:41.020Z,70.12
2024-04-18T16:05:07.968Z,69.97
2024-04-18T16:07:34.863Z,70.06
2024-04-18T16:10:06.015Z,70.02
2024-04-18T16:12:33.135Z,70.20
2024-04-18T16:15:00.506Z,70.25
2024-04-18T16:17:27.458Z,70.08
2024-04-18T16:19:54.254Z,70.06
2024-04-18T16:22:21.107Z,70.24
2024-04-18T16:24:51.542Z,70.37
2024-04-18T16:27:21.013Z,70.18
2024-04-18T16:29:48.022Z,70.46
2024-04-18T16:32:14.919Z,70.33
2024-04-18T16:34:41.818Z,70.49
2024-04-18T16:37:12.956Z,70.34
2024-04-18T16:39:42.049Z,70.27
2024-04-18T16:42:09.033Z,70.34
2024-04-18T16:44:38.497Z,70.18
2024-04-18T16:47:05.633Z,70.42
2024-04-18T16:49:32.453Z,70.40
2024-04-18T16:51:59.366Z,70.42
2024-04-18T16:54:26.241Z,70.44
2024-04-18T16:56:53.157Z,70.42
2024-04-18T16:59:20.050Z,70.62
2024-04-18T17:01:50.478Z,70.36
2024-04-18T17:04:17.380Z,70.51
2024-04-18T17:06:48.219Z,70.36
2024-04-18T17:09:16.044Z,70.62
2024-04-18T17:11:43.059Z,70.60
2024-04-18T17:14:09.972Z,70.41
2024-04-18T17:16:36.872Z,70.41
2024-04-18T17:19:06.483Z,70.24
2024-04-18T17:21:35.293Z,70.61
2024-04-18T17:24:02.504Z,70.42
2024-04-18T17:26:29.432Z,70.46
2024-04-18T17:28:56.304Z,70.33
2024-04-18T17:31:23.112Z,70.32
2024-04-18T17:33:50.128Z,70.70
2024-04-18T17:36:19.686Z,70.48
2024-04-18T17:38:47.114Z,70.69
2024-04-18T17:41:14.105Z,70.41
2024-04-18T17:43:41.007Z,70.43
2024-04-18T17:46:08.166Z,70.72
2024-04-18T17:48:35.145Z,70.75
2024-04-18T17:51:01.990Z,71.02
2024-04-18T17:53:31.622Z,70.65
2024-04-18T17:55:58.572Z,70.76
2024-04-18T17:58:25.407Z,70.53
2024-04-18T18:00:52.438Z,70.57
2024-04-18T18:03:19.332Z,70.51
2024-04-18T18:05:46.374Z,70.53
2024-04-18T18:08:13.280Z,70.79
2024-04-18T18:10:42.696Z,70.58
2024-04-18T18:13:09.595Z,70.63
2024-04-18T18:15:36.524Z,70.80
2024-04-18T18:18:03.738Z,70.92
2024-04-18T18:20:30.601Z,70.64
2024-04-18T18:22:57.491Z,71.13
2024-04-18T18:25:24.696Z,70.74
2024-04-18T18:27:54.141Z,70.64
2024-04-18T18:30:21.247Z,70.78
2024-04-18T18:32:48.396Z,71.18
2024-04-18T18:35:15.647Z,71.30
2024-04-18T18:37:42.474Z,71.51
2024-04-18T18:40:10.565Z,71.54
2024-04-18T18:42:37.705Z,71.46
2024-04-18T18:45:10.980Z,71.29
2024-04-18T18:47:38.035Z,71.49
2024-04-18T18:50:05.259Z,71.19
2024-04-18T18:52:32.054Z,71.55
2024-04-18T18:54:58.861Z,71.32
2024-04-18T18:57:25.848Z,71.67
2024-04-18T18:59:52.668Z,71.71
2024-04-18T19:02:22.145Z,71.42
2024-04-18T19:04:48.948Z,71.46
2024-04-18T19:07:15.718Z,71.73
2024-04-18T19:09:43.478Z,71.27
2024-04-18T19:12:12.535Z,71.48
2024-04-18T19:14:39.443Z,71.65
2024-04-18T19:17:07.462Z,71.42
2024-04-18T19:19:37.062Z,71.62
2024-04-18T19:22:04.527Z,71.70
2024-04-18T19:24:31.414Z,71.39
2024-04-18T19:27:00.407Z,71.75
2024-04-18T19:29:36.274Z,71.82
2024-04-18T19:32:11.577Z,71.78
2024-04-18T19:34:41.143Z,71.54
2024-04-18T19:37:08.001Z,71.66
2024-04-18T19:39:34.906Z,72.05
2024-04-18T19:42:01.911Z,71.68
2024-04-18T19:44:28.807Z,72.13
2024-04-18T19:46:55.646Z,71.78
2024-04-18T19:49:22.528Z,72.03
2024-04-18T19:51:52.036Z,72.10
2024-04-18T19:54:18.855Z,72.28
2024-04-18T19:56:45.740Z,72.12
2024-04-18T19:59:13.873Z,72.31
2024-04-18T20:01:40.724Z,72.37
2024-04-18T20:04:07.760Z,72.15
2024-04-18T20:06:34.741Z,72.12
2024-04-18T20:09:04.287Z,72.54
2024-04-18T20:11:31.145Z,72.36
2024-04-18T20:13:57.961Z,72.53
2024-04-18T20:16:25.246Z,72.45
2024-04-18T20:18:52.256Z,72.58
2024-04-18T20:21:19.196Z,72.20
2024-04-18T20:23:46.168Z,72.55
2024-04-18T20:26:15.917Z,72.55
2024-04-18T20:28:42.683Z,72.26
2024-04-18T20:31:09.521Z,72.75
2024-04-18T20:33:36.411Z,72.63
2024-04-18T20:36:03.563Z,72.71
2024-04-18T20:38:30.420Z,72.62
2024-04-18T20:40:57.329Z,72.80
2024-04-18T20:43:28.000Z,72.43
2024-04-18T20:45:55.894Z,72.45
2024-04-18T20:48:23.229Z,72.38
2024-04-18T20:50:50.100Z,72.80
2024-04-18T20:53:16.918Z,72.43
2024-04-18T20:55:43.798Z,72.77
2024-04-18T20:58:10.582Z,72.89
2024-04-18T21:00:44.848Z,72.61
2024-04-18T21:03:12.299Z,72.95
2024-04-18T21:05:39.680Z,72.60
2024-04-18T21:08:07.191Z,72.96
2024-04-18T21:10:33.993Z,72.81
2024-04-18T21:13:02.868Z,72.64
2024-04-18T21:15:31.431Z,72.90
2024-04-18T21:18:01.051Z,73.01
2024-04-18T21:20:28.024Z,72.75
2024-04-18T21:22:54.912Z,72.73
2024-04-18T21:25:21.966Z,73.07
2024-04-18T21:27:48.873Z,72.95
2024-04-18T21:30:15.875Z,72.79
2024-04-18T21:32:43.197Z,72.81
2024-04-18T21:35:13.382Z,73.15
2024-04-18T21:37:40.240Z,72.83
2024-04-18T21:40:08.577Z,72.89
2024-04-18T21:42:35.443Z,72.94
2024-04-18T21:45:02.325Z,72.86
2024-04-18T21:47:29.317Z,73.11
2024-04-18T21:49:56.371Z,73.14
2024-04-18T21:52:25.813Z,73.06
2024-04-18T21:54:54.442Z,73.36
2024-04-18T21:57:23.272Z,73.13
2024-04-18T21:59:50.368Z,73.46
2024-04-18T22:02:18.490Z,72.97
2024-04-18T22:04:46.892Z,73.27
2024-04-18T22:07:13.869Z,73.24
2024-04-18T22:09:43.452Z,73.23
2024-04-18T22:12:10.503Z,73.22
2024-04-18T22:14:37.401Z,73.33
2024-04-18T22:17:04.333Z,73.06
2024-04-18T22:19:31.368Z,73.15
2024-04-18T22:21:58.269Z,73.08
2024-04-18T22:24:25.141Z,73.01
2024-04-18T22:26:54.677Z,73.16
2024-04-18T22:29:21.537Z,73.13
2024-04-18T22:31:48.328Z,72.85
2024-04-18T22:34:24.774Z,73.17
2024-04-18T22:36:57.891Z,73.10
2024-04-18T22:39:24.846Z,73.48
2024-04-18T22:41:54.310Z,73.41
2024-04-18T22:44:21.439Z,73.51
2024-04-18T22:46:48.379Z,73.49
2024-04-18T22:49:15.354Z,73.79
2024-04-18T22:51:42.273Z,73.72
2024-04-18T22:54:09.185Z,73.84
2024-04-18T22:56:36.023Z,74.24
2024-04-18T22:59:05.526Z,74.34
2024-04-18T23:01:32.548Z,74.33
2024-04-18T23:03:59.875Z,74.16
2024-04-18T23:06:26.975Z,74.47
2024-04-18T23:08:54.346Z,74.54
2024-04-18T23:11:22.262Z,74.50
2024-04-18T23:13:49.886Z,74.99
2024-04-18T23:16:19.353Z,75.08
2024-04-18T23:18:46.318Z,74.92
2024-04-18T23:21:13.273Z,74.97
2024-04-18T23:23:40.198Z,75.07
2024-04-18T23:26:07.095Z,75.27
2024-04-18T23:28:33.918Z,75.11
2024-04-18T23:31:00.885Z,75.73
2024-04-18T23:33:30.481Z,75.95
2024-04-18T23:35:57.330Z,75.54
2024-04-18T23:38:24.235Z,75.93
2024-04-18T23:40:51.052Z,76.34
2024-04-18T23:43:18.927Z,76.21
2024-04-18T23:45:45.811Z,76.48
2024-04-18T23:48:13.702Z,76.35
2024-04-18T23:50:43.620Z,76.38
2024-04-18T23:53:10.556Z,76.66
2024-04-18T23:55:37.466Z,77.00
2024-04-18T23:58:04.734Z,76.82
